Hovedside
METAR-TAF:

METAR-TAF

Lufthavner :

Beijing, Kina

Beijing internasjonale lufthavn

breddegrad: 39-56N, lengdegrad: 116-17E, høyde over havet: 55 m

Gjeldene værobservasjon

Denne rapporten ble laget for 31 minutter siden, klokken 19:00 UTC
Vind 6 kt fra Nord
Temperatur -6°C
Luftfuktighet 49%
Trykk 1024 hPa
Sikt 10 km eller mer
ingen skyer under 1500 m og ingen bygeskyer

METAR: ZBAA 191900Z 36003MPS CAVOK M06/M15 Q1024 NOSIG

Tid: 03:31 (19:31 UTC)

Varsel

Denne rapporten ble laget for 4 timer og 11 minutter siden, klokken 15:20 UTC
Varsel gyldig fra 19. klokken 18 UTC til 20. klokken 18 UTC
Vind 8 kt fra Øst
Sikt 10 km eller mer
ingen skyer under 1500 m og ingen bygeskyer

TAF: ZBAA 191520Z 1918/2018 10004MPS CAVOK TX05/2007Z TNM08/21Z

Værobservasjoner og værvarsel for over 4000 flyplasser (METAR- og TAF-rapporter).

Tilgjengelige stasjoner er representert av de røde og gule prikkene på kartet.

Hold musepekeren over prikken for å se navnet på stasjonen.

Klikk så for å se værobservasjoner og -varsler.

For å forandre kartet kan du klikke på den grønne knappen med svart kryss for å zoome inn, på den grønne knappen med strek for å zoome ut, eller på de grønne pilene for å se tilstøtende kart.


METAR-TAF: